createdAt,value
2023-03-21T00:01:52.280Z,99782.00
2023-03-21T00:04:20.984Z,99781.72
2023-03-21T00:06:48.952Z,99784.12
2023-03-21T00:09:16.563Z,99787.81
2023-03-21T00:11:44.328Z,99776.84
2023-03-21T00:14:14.562Z,99769.88
2023-03-21T00:16:45.856Z,99760.28
2023-03-21T00:19:14.562Z,99769.94
2023-03-21T00:22:05.810Z,99763.75
2023-03-21T00:24:30.917Z,99762.97
2023-03-21T00:27:15.897Z,99762.97
2023-03-21T00:29:46.792Z,99759.44
2023-03-21T00:32:14.229Z,99765.72
2023-03-21T00:34:59.600Z,99766.59
2023-03-21T00:37:30.139Z,99761.59
2023-03-21T00:39:57.529Z,99760.75
2023-03-21T00:42:25.044Z,99755.84
2023-03-21T00:44:52.643Z,99750.19
2023-03-21T00:47:20.645Z,99752.47
2023-03-21T00:49:50.311Z,99750.09
2023-03-21T00:52:27.551Z,99745.16
2023-03-21T00:55:02.265Z,99744.03
2023-03-21T00:57:38.698Z,99748.06
2023-03-21T01:00:10.664Z,99753.38
2023-03-21T01:02:38.721Z,99746.59
2023-03-21T01:05:06.510Z,99748.50
2023-03-21T01:07:33.865Z,99741.81
2023-03-21T01:10:01.500Z,99747.16
2023-03-21T01:12:28.883Z,99738.50
2023-03-21T01:14:57.674Z,99741.66
2023-03-21T01:17:25.281Z,99740.81
2023-03-21T01:19:52.724Z,99744.72
2023-03-21T01:22:20.189Z,99749.72
2023-03-21T01:24:55.584Z,99746.78
2023-03-21T01:27:27.936Z,99742.97
2023-03-21T01:29:55.807Z,99738.06
2023-03-21T01:32:23.392Z,99736.31
2023-03-21T01:34:50.960Z,99737.22
2023-03-21T01:37:19.994Z,99735.19
2023-03-21T01:39:47.920Z,99736.47
2023-03-21T01:42:15.556Z,99734.13
2023-03-21T01:44:57.244Z,99741.06
2023-03-21T01:47:25.786Z,99743.03
2023-03-21T01:49:56.668Z,99744.38
2023-03-21T01:52:36.376Z,99746.97
2023-03-21T01:55:07.089Z,99736.22
2023-03-21T01:57:51.867Z,99742.25
2023-03-21T02:00:25.053Z,99738.25
2023-03-21T02:03:06.099Z,99740.19
2023-03-21T02:05:44.439Z,99742.72
2023-03-21T02:08:13.278Z,99744.22
2023-03-21T02:10:42.799Z,99744.50
2023-03-21T02:13:11.597Z,99742.84
2023-03-21T02:15:41.355Z,99748.34
2023-03-21T02:18:44.272Z,99749.81
2023-03-21T02:21:33.389Z,99747.13
2023-03-21T02:24:20.942Z,99748.50
2023-03-21T02:27:04.726Z,99749.06
2023-03-21T02:29:54.421Z,99745.50
2023-03-21T02:32:41.515Z,99738.56
2023-03-21T02:35:12.133Z,99740.22
2023-03-21T02:37:51.975Z,99738.66
2023-03-21T02:40:40.031Z,99741.50
2023-03-21T02:43:22.560Z,99740.88
2023-03-21T02:45:53.906Z,99742.16
2023-03-21T02:48:50.242Z,99743.22
2023-03-21T02:51:22.175Z,99743.00
2023-03-21T02:54:16.179Z,99737.25
2023-03-21T02:56:40.470Z,99738.34
2023-03-21T02:59:08.122Z,99747.03
2023-03-21T03:01:35.749Z,99742.81
2023-03-21T03:04:03.540Z,99746.59
2023-03-21T03:07:09.539Z,99746.34
2023-03-21T03:10:13.296Z,99739.28
2023-03-21T03:12:54.441Z,99747.25
2023-03-21T03:15:41.866Z,99746.41
2023-03-21T03:18:31.330Z,99750.34
2023-03-21T03:21:08.679Z,99743.59
2023-03-21T03:23:48.997Z,99742.50
2023-03-21T03:26:27.065Z,99747.81
2023-03-21T03:28:58.940Z,99747.16
2023-03-21T03:32:03.741Z,99737.41
2023-03-21T03:34:34.480Z,99745.22
2023-03-21T03:37:04.543Z,99737.53
2023-03-21T03:39:36.217Z,99745.22
2023-03-21T03:42:28.714Z,99744.22
2023-03-21T03:44:57.033Z,99742.25
2023-03-21T03:47:56.052Z,99741.97
2023-03-21T03:51:01.314Z,99744.69
2023-03-21T03:53:32.586Z,99738.72
2023-03-21T03:56:00.212Z,99741.84
2023-03-21T03:58:39.777Z,99739.91
2023-03-21T04:01:14.014Z,99747.72
2023-03-21T04:03:49.847Z,99746.88
2023-03-21T04:06:18.996Z,99748.06
2023-03-21T04:08:47.160Z,99742.75
2023-03-21T04:11:15.940Z,99737.50
2023-03-21T04:13:45.397Z,99738.59
2023-03-21T04:16:14.280Z,99738.69
2023-03-21T04:18:42.437Z,99738.72
2023-03-21T04:21:10.840Z,99745.22
2023-03-21T04:23:39.236Z,99746.12
2023-03-21T04:26:06.632Z,99743.00
2023-03-21T04:28:36.134Z,99739.16
2023-03-21T04:31:16.146Z,99739.00
2023-03-21T04:33:52.026Z,99744.13
2023-03-21T04:36:28.719Z,99742.00
2023-03-21T04:39:00.797Z,99741.37
2023-03-21T04:41:28.862Z,99739.63
2023-03-21T04:43:57.399Z,99738.16
2023-03-21T04:46:24.791Z,99743.94
2023-03-21T04:48:52.401Z,99741.75
2023-03-21T04:51:19.949Z,99743.75
2023-03-21T04:53:49.381Z,99738.81
2023-03-21T04:56:17.080Z,99751.91
2023-03-21T04:58:45.366Z,99744.13
2023-03-21T05:01:14.618Z,99739.84
2023-03-21T05:03:42.494Z,99740.41
2023-03-21T05:06:10.271Z,99746.06
2023-03-21T05:08:37.712Z,99748.09
2023-03-21T05:11:05.599Z,99750.84
2023-03-21T05:13:33.199Z,99757.81
2023-03-21T05:16:00.582Z,99748.91
2023-03-21T05:18:28.433Z,99757.94
2023-03-21T05:20:56.891Z,99757.47
2023-03-21T05:23:24.366Z,99751.66
2023-03-21T05:25:52.611Z,99751.31
2023-03-21T05:28:20.972Z,99748.31
2023-03-21T05:30:49.040Z,99764.53
2023-03-21T05:33:17.051Z,99758.94
2023-03-21T05:35:44.610Z,99757.28
2023-03-21T05:38:12.614Z,99759.78
2023-03-21T05:40:48.429Z,99763.72
2023-03-21T05:43:15.799Z,99761.94
2023-03-21T05:45:43.443Z,99768.47
2023-03-21T05:48:11.518Z,99768.38
2023-03-21T05:50:42.248Z,99767.34
2023-03-21T05:53:10.623Z,99777.78
2023-03-21T05:55:39.176Z,99772.31
2023-03-21T05:58:08.035Z,99778.00
2023-03-21T06:00:35.576Z,99774.91
2023-03-21T06:03:04.394Z,99780.19
2023-03-21T06:05:32.791Z,99784.91
2023-03-21T06:08:00.298Z,99778.81
2023-03-21T06:10:28.051Z,99779.66
2023-03-21T06:12:55.487Z,99773.28
2023-03-21T06:15:23.563Z,99778.34
2023-03-21T06:17:51.618Z,99780.66
2023-03-21T06:20:19.084Z,99773.69
2023-03-21T06:22:46.675Z,99770.44
2023-03-21T06:25:14.371Z,99778.41
2023-03-21T06:27:41.795Z,99770.66
2023-03-21T06:30:09.738Z,99778.84
2023-03-21T06:32:37.783Z,99774.13
2023-03-21T06:35:07.383Z,99769.38
2023-03-21T06:37:34.840Z,99773.69
2023-03-21T06:40:04.602Z,99781.13
2023-03-21T06:42:32.642Z,99777.59
2023-03-21T06:45:00.451Z,99766.78
2023-03-21T06:47:28.316Z,99781.38
2023-03-21T06:49:56.158Z,99775.47
2023-03-21T06:52:23.560Z,99774.91
2023-03-21T06:54:53.594Z,99779.81
2023-03-21T06:57:21.996Z,99788.56
2023-03-21T06:59:49.747Z,99788.28
2023-03-21T07:02:18.354Z,99780.94
2023-03-21T07:04:46.089Z,99789.34
2023-03-21T07:07:14.190Z,99788.53
2023-03-21T07:09:42.213Z,99796.06
2023-03-21T07:12:10.571Z,99802.78
2023-03-21T07:14:40.575Z,99795.34
2023-03-21T07:17:08.276Z,99794.50
2023-03-21T07:19:35.684Z,99792.16
2023-03-21T07:22:03.041Z,99796.13
2023-03-21T07:24:30.660Z,99797.91
2023-03-21T07:26:58.044Z,99811.69
2023-03-21T07:29:26.570Z,99808.56
2023-03-21T07:31:54.268Z,99812.81
2023-03-21T07:34:22.828Z,99813.34
2023-03-21T07:36:51.005Z,99813.00
2023-03-21T07:39:20.525Z,99826.53
2023-03-21T07:41:47.990Z,99800.34
2023-03-21T07:44:18.289Z,99798.25
2023-03-21T07:46:45.922Z,99785.56
2023-03-21T07:49:13.293Z,99785.53
2023-03-21T07:51:40.815Z,99786.47
2023-03-21T07:54:08.479Z,99791.09
2023-03-21T07:56:36.397Z,99781.47
2023-03-21T07:59:05.364Z,99784.06
2023-03-21T08:01:33.079Z,99782.16
2023-03-21T08:04:00.685Z,99789.44
2023-03-21T08:06:28.539Z,99781.91
2023-03-21T08:08:55.996Z,99778.69
2023-03-21T08:11:24.651Z,99789.19
2023-03-21T08:13:52.013Z,99780.31
2023-03-21T08:16:19.574Z,99784.88
2023-03-21T08:18:47.321Z,99792.41
2023-03-21T08:21:14.679Z,99775.75
2023-03-21T08:23:42.161Z,99791.06
2023-03-21T08:26:10.396Z,99787.50
2023-03-21T08:28:39.625Z,99779.59
2023-03-21T08:31:08.869Z,99789.19
2023-03-21T08:33:37.176Z,99787.34
2023-03-21T08:36:05.391Z,99789.31
2023-03-21T08:38:33.598Z,99791.16
2023-03-21T08:41:01.351Z,99801.97
2023-03-21T08:43:29.123Z,99800.31
2023-03-21T08:45:56.628Z,99794.41
2023-03-21T08:48:24.592Z,99781.91
2023-03-21T08:50:51.989Z,99779.00
2023-03-21T08:53:19.374Z,99795.87
2023-03-21T08:55:47.057Z,99788.28
2023-03-21T08:58:14.453Z,99779.44
2023-03-21T09:00:41.845Z,99779.84
2023-03-21T09:03:11.621Z,99782.75
2023-03-21T09:05:39.492Z,99781.50
2023-03-21T09:08:07.254Z,99782.31
2023-03-21T09:10:34.854Z,99805.38
2023-03-21T09:13:02.217Z,99778.19
2023-03-21T09:15:29.800Z,99792.63
2023-03-21T09:17:58.862Z,99801.31
2023-03-21T09:20:31.037Z,99800.72
2023-03-21T09:22:59.208Z,99798.31
2023-03-21T09:25:31.290Z,99797.44
2023-03-21T09:28:00.577Z,99797.25
2023-03-21T09:30:29.504Z,99801.19
2023-03-21T09:32:56.970Z,99805.34
2023-03-21T09:35:24.869Z,99791.38
2023-03-21T09:37:52.585Z,99795.50
2023-03-21T09:40:43.004Z,99792.63
2023-03-21T09:43:35.845Z,99778.41
2023-03-21T09:46:09.161Z,99773.72
2023-03-21T09:48:56.102Z,99767.09
2023-03-21T09:51:26.190Z,99773.22
2023-03-21T09:53:56.556Z,99763.81
2023-03-21T09:56:26.045Z,99764.69
2023-03-21T09:58:56.021Z,99766.69
2023-03-21T10:01:30.058Z,99761.81
2023-03-21T10:04:01.095Z,99766.72
2023-03-21T10:06:30.383Z,99756.84
2023-03-21T10:09:09.734Z,99754.16
2023-03-21T10:11:44.284Z,99755.47
2023-03-21T10:14:21.771Z,99760.81
2023-03-21T10:16:56.730Z,99755.88
2023-03-21T10:19:24.395Z,99753.25
2023-03-21T10:22:00.739Z,99746.84
2023-03-21T10:24:29.805Z,99753.88
2023-03-21T10:26:57.208Z,99744.97
2023-03-21T10:29:27.668Z,99738.56
2023-03-21T10:31:55.818Z,99737.34
2023-03-21T10:34:36.729Z,99749.50
2023-03-21T10:37:04.521Z,99731.66
2023-03-21T10:39:38.667Z,99733.31
2023-03-21T10:42:06.741Z,99745.09
2023-03-21T10:44:35.166Z,99738.78
2023-03-21T10:47:07.226Z,99745.06
2023-03-21T10:49:56.345Z,99735.66
2023-03-21T10:52:27.483Z,99739.84
2023-03-21T10:55:24.320Z,99734.75
2023-03-21T10:57:54.015Z,99727.63
2023-03-21T11:00:23.117Z,99735.59
2023-03-21T11:02:51.383Z,99728.09
2023-03-21T11:05:23.231Z,99733.13
2023-03-21T11:08:01.409Z,99721.13
2023-03-21T11:10:38.064Z,99731.50
2023-03-21T11:13:08.190Z,99720.47
2023-03-21T11:15:49.055Z,99708.03
2023-03-21T11:18:22.275Z,99709.38
2023-03-21T11:20:52.493Z,99701.28
2023-03-21T11:23:20.938Z,99689.25
2023-03-21T11:25:51.688Z,99701.31
2023-03-21T11:28:23.484Z,99711.50
2023-03-21T11:30:56.540Z,99695.34
2023-03-21T11:33:33.440Z,99697.03
2023-03-21T11:36:24.534Z,99683.97
2023-03-21T11:39:01.119Z,99686.63
2023-03-21T11:41:30.632Z,99680.00
2023-03-21T11:43:58.442Z,99692.78
2023-03-21T11:46:30.848Z,99679.38
2023-03-21T11:48:58.902Z,99681.50
2023-03-21T11:51:44.436Z,99666.09
2023-03-21T11:54:17.913Z,99654.59
2023-03-21T11:56:52.067Z,99665.78
2023-03-21T11:59:58.151Z,99665.69
2023-03-21T12:02:51.586Z,99655.88
2023-03-21T12:05:21.845Z,99641.88
2023-03-21T12:07:52.237Z,99639.94
2023-03-21T12:10:58.071Z,99631.56
2023-03-21T12:13:49.192Z,99645.84
2023-03-21T12:16:57.707Z,99647.28
2023-03-21T12:19:40.359Z,99645.31
2023-03-21T12:22:17.708Z,99642.28
2023-03-21T12:24:56.179Z,99639.34
2023-03-21T12:27:51.303Z,99645.00
2023-03-21T12:30:32.401Z,99646.62
2023-03-21T12:33:18.281Z,99633.81
2023-03-21T12:35:59.797Z,99638.22
2023-03-21T12:38:40.696Z,99641.25
2023-03-21T12:41:23.522Z,99637.47
2023-03-21T12:43:52.805Z,99642.25
2023-03-21T12:46:26.816Z,99626.94
2023-03-21T12:49:03.034Z,99630.94
2023-03-21T12:51:33.996Z,99619.00
2023-03-21T12:54:06.358Z,99612.84
2023-03-21T12:56:55.331Z,99605.41
2023-03-21T12:59:42.345Z,99618.28
2023-03-21T13:02:32.275Z,99608.66
2023-03-21T13:05:05.995Z,99622.47
2023-03-21T13:07:35.137Z,99606.16
2023-03-21T13:10:04.781Z,99605.03
2023-03-21T13:12:43.310Z,99598.06
2023-03-21T13:15:30.892Z,99601.31
2023-03-21T13:18:37.518Z,99592.81
2023-03-21T13:21:25.942Z,99588.66
2023-03-21T13:24:18.409Z,99592.47
2023-03-21T13:26:50.046Z,99585.84
2023-03-21T13:29:29.663Z,99599.84
2023-03-21T13:32:05.812Z,99599.09
2023-03-21T13:34:33.216Z,99600.19
2023-03-21T13:37:00.824Z,99596.37
2023-03-21T13:39:28.773Z,99590.06
2023-03-21T13:41:56.575Z,99588.97
2023-03-21T13:44:32.049Z,99589.22
2023-03-21T13:47:04.356Z,99587.53
2023-03-21T13:49:36.070Z,99578.62
2023-03-21T13:52:27.486Z,99580.34
2023-03-21T13:54:56.241Z,99581.37
2023-03-21T13:57:30.479Z,99581.50
2023-03-21T14:00:15.543Z,99574.87
2023-03-21T14:03:08.532Z,99566.59
2023-03-21T14:05:37.603Z,99565.28
2023-03-21T14:08:15.752Z,99564.13
2023-03-21T14:10:49.046Z,99557.69
2023-03-21T14:13:19.480Z,99547.69
2023-03-21T14:15:55.929Z,99546.78
2023-03-21T14:18:35.296Z,99544.72
2023-03-21T14:21:23.707Z,99541.06
2023-03-21T14:24:05.148Z,99545.66
2023-03-21T14:26:37.823Z,99546.88
2023-03-21T14:29:09.619Z,99530.13
2023-03-21T14:31:43.004Z,99531.59
2023-03-21T14:34:10.654Z,99531.13
2023-03-21T14:36:38.987Z,99521.56
2023-03-21T14:39:31.491Z,99527.72
2023-03-21T14:42:13.676Z,99517.81
2023-03-21T14:44:54.519Z,99521.28
2023-03-21T14:47:27.810Z,99533.84
2023-03-21T14:49:56.389Z,99533.63
2023-03-21T14:52:26.017Z,99528.81
2023-03-21T14:54:53.506Z,99531.38
2023-03-21T14:57:22.981Z,99530.25
2023-03-21T14:59:51.995Z,99538.03
2023-03-21T15:02:32.978Z,99534.66
2023-03-21T15:05:21.990Z,99528.84
2023-03-21T15:07:56.838Z,99528.63
2023-03-21T15:10:25.267Z,99521.09
2023-03-21T15:13:03.274Z,99522.06
2023-03-21T15:15:31.272Z,99518.63
2023-03-21T15:18:02.994Z,99509.56
2023-03-21T15:20:40.056Z,99508.38
2023-03-21T15:23:12.763Z,99508.66
2023-03-21T15:25:40.834Z,99512.50
2023-03-21T15:28:08.420Z,99518.94
2023-03-21T15:30:36.037Z,99509.84
2023-03-21T15:33:09.239Z,99506.09
2023-03-21T15:35:41.528Z,99507.16
2023-03-21T15:38:22.396Z,99519.66
2023-03-21T15:40:49.758Z,99513.34
2023-03-21T15:43:18.723Z,99503.59
2023-03-21T15:45:55.761Z,99511.44
2023-03-21T15:48:27.881Z,99507.75
2023-03-21T15:50:55.129Z,99513.59
2023-03-21T15:53:23.374Z,99511.50
2023-03-21T15:55:57.004Z,99503.31
2023-03-21T15:58:36.053Z,99515.91
2023-03-21T16:01:08.536Z,99514.06
2023-03-21T16:03:37.244Z,99515.19
2023-03-21T16:06:16.619Z,99510.38
2023-03-21T16:08:50.147Z,99510.63
2023-03-21T16:11:25.645Z,99514.13
2023-03-21T16:13:53.494Z,99513.78
2023-03-21T16:16:28.332Z,99513.34
2023-03-21T16:18:56.709Z,99511.94
2023-03-21T16:21:26.512Z,99521.72
2023-03-21T16:23:53.910Z,99527.00
2023-03-21T16:26:23.334Z,99518.41
2023-03-21T16:28:50.903Z,99533.09
2023-03-21T16:31:20.884Z,99531.50
2023-03-21T16:33:48.850Z,99527.59
2023-03-21T16:36:24.191Z,99541.94
2023-03-21T16:38:52.759Z,99532.97
2023-03-21T16:41:20.367Z,99527.53
2023-03-21T16:43:47.854Z,99542.91
2023-03-21T16:46:25.417Z,99539.53
2023-03-21T16:48:57.990Z,99543.53
2023-03-21T16:51:33.340Z,99547.50
2023-03-21T16:54:00.970Z,99554.16
2023-03-21T16:56:37.525Z,99552.63
2023-03-21T16:59:05.992Z,99563.47
2023-03-21T17:01:35.921Z,99560.66
2023-03-21T17:04:03.364Z,99559.47
2023-03-21T17:06:31.003Z,99558.50
2023-03-21T17:08:58.835Z,99564.25
2023-03-21T17:11:26.769Z,99566.06
2023-03-21T17:13:54.574Z,99566.75
2023-03-21T17:16:26.576Z,99568.41
2023-03-21T17:18:54.514Z,99570.03
2023-03-21T17:21:26.570Z,99572.13
2023-03-21T17:23:53.944Z,99570.44
2023-03-21T17:26:23.508Z,99563.41
2023-03-21T17:28:55.248Z,99572.22
2023-03-21T17:31:24.039Z,99570.78
2023-03-21T17:33:51.427Z,99573.44
2023-03-21T17:36:27.045Z,99577.59
2023-03-21T17:38:55.429Z,99571.94
2023-03-21T17:41:22.825Z,99578.94
2023-03-21T17:43:51.617Z,99568.66
2023-03-21T17:46:21.120Z,99577.22
2023-03-21T17:48:48.670Z,99582.41
2023-03-21T17:51:17.115Z,99584.88
2023-03-21T17:53:45.502Z,99576.63
2023-03-21T17:56:16.742Z,99584.91
2023-03-21T17:58:44.104Z,99578.94
2023-03-21T18:01:11.824Z,99577.88
2023-03-21T18:03:39.437Z,99586.53
2023-03-21T18:06:07.118Z,99591.50
2023-03-21T18:08:34.477Z,99600.91
2023-03-21T18:11:02.138Z,99590.88
2023-03-21T18:13:29.495Z,99605.22
2023-03-21T18:15:56.941Z,99601.34
2023-03-21T18:18:27.134Z,99600.75
2023-03-21T18:20:57.540Z,99601.38
2023-03-21T18:23:25.466Z,99598.28
2023-03-21T18:25:53.065Z,99606.31
2023-03-21T18:28:21.384Z,99602.19
2023-03-21T18:31:07.418Z,99603.84
2023-03-21T18:33:40.353Z,99611.28
2023-03-21T18:36:09.247Z,99612.06
2023-03-21T18:38:37.082Z,99615.38
2023-03-21T18:41:05.531Z,99616.38
2023-03-21T18:46:21.110Z,99613.09
2023-03-21T18:48:49.212Z,99626.75
2023-03-21T18:51:17.772Z,99618.59
2023-03-21T18:53:45.757Z,99621.06
2023-03-21T18:56:36.898Z,99623.19
2023-03-21T18:59:01.884Z,99624.53
2023-03-21T19:01:29.794Z,99621.34
2023-03-21T19:04:20.467Z,99626.38
2023-03-21T19:06:47.879Z,99623.00
2023-03-21T19:09:15.252Z,99624.22
2023-03-21T19:11:42.865Z,99625.66
2023-03-21T19:14:11.616Z,99632.09
2023-03-21T19:17:02.099Z,99628.53
2023-03-21T19:19:26.998Z,99637.09
2023-03-21T19:21:54.496Z,99634.38
2023-03-21T19:24:27.613Z,99633.84
2023-03-21T19:26:56.464Z,99636.72
2023-03-21T19:29:23.878Z,99638.25
2023-03-21T19:31:51.613Z,99629.41
2023-03-21T19:34:19.520Z,99635.81
2023-03-21T19:36:51.509Z,99634.69
2023-03-21T19:39:22.611Z,99639.94
2023-03-21T19:41:50.980Z,99636.34
2023-03-21T19:44:19.170Z,99646.97
2023-03-21T19:46:48.411Z,99646.62
2023-03-21T19:49:20.123Z,99647.47
2023-03-21T19:51:47.977Z,99643.44
2023-03-21T19:54:17.371Z,99647.19
2023-03-21T19:56:47.559Z,99642.50
2023-03-21T19:59:15.848Z,99650.63
2023-03-21T20:01:44.264Z,99652.94
2023-03-21T20:04:12.233Z,99655.44
2023-03-21T20:06:39.675Z,99655.84
2023-03-21T20:11:57.731Z,99656.06
2023-03-21T20:14:25.272Z,99661.00
2023-03-21T20:16:55.307Z,99658.97
2023-03-21T20:19:23.156Z,99662.97
2023-03-21T20:21:58.014Z,99664.94
2023-03-21T20:24:27.479Z,99664.84
2023-03-21T20:26:55.624Z,99657.09
2023-03-21T20:32:11.557Z,99668.19
2023-03-21T20:34:39.355Z,99662.94
2023-03-21T20:37:07.102Z,99664.63
2023-03-21T20:39:34.807Z,99666.34
2023-03-21T20:42:02.500Z,99666.75
2023-03-21T20:44:57.963Z,99673.37
2023-03-21T20:47:17.572Z,99665.37
2023-03-21T20:49:45.282Z,99673.41
2023-03-21T20:52:52.117Z,99677.69
2023-03-21T20:55:00.308Z,99671.78
2023-03-21T20:57:27.748Z,99671.38
2023-03-21T20:59:55.177Z,99669.12
2023-03-21T21:02:23.042Z,99670.84
2023-03-21T21:05:17.720Z,99676.00
2023-03-21T21:07:43.177Z,99676.38
2023-03-21T21:10:11.875Z,99677.59
2023-03-21T21:12:39.545Z,99680.69
2023-03-21T21:15:08.196Z,99687.25
2023-03-21T21:18:02.029Z,99684.44
2023-03-21T21:20:23.224Z,99694.97
2023-03-21T21:23:00.557Z,99690.28
2023-03-21T21:25:29.376Z,99686.78
2023-03-21T21:27:56.784Z,99691.97
2023-03-21T21:30:24.173Z,99693.09
2023-03-21T21:32:51.831Z,99684.09
2023-03-21T21:35:20.589Z,99691.44
2023-03-21T21:37:48.854Z,99695.72
2023-03-21T21:40:20.402Z,99691.47
2023-03-21T21:42:47.966Z,99696.16
2023-03-21T21:45:15.943Z,99698.28
2023-03-21T21:47:43.926Z,99695.97
2023-03-21T21:50:11.417Z,99703.69
2023-03-21T21:52:39.042Z,99696.56
2023-03-21T21:55:06.733Z,99703.78
2023-03-21T21:57:34.587Z,99700.66
2023-03-21T22:00:06.502Z,99706.47
2023-03-21T22:02:39.754Z,99703.72
2023-03-21T22:05:08.808Z,99702.69
2023-03-21T22:07:37.515Z,99701.41
2023-03-21T22:10:05.397Z,99705.53
2023-03-21T22:12:33.024Z,99704.97
2023-03-21T22:15:00.489Z,99701.13
2023-03-21T22:17:27.853Z,99712.41
2023-03-21T22:20:05.097Z,99711.13
2023-03-21T22:22:34.038Z,99713.72
2023-03-21T22:25:02.113Z,99710.13
2023-03-21T22:27:29.501Z,99702.72
2023-03-21T22:29:56.890Z,99703.16
2023-03-21T22:32:24.611Z,99710.38
2023-03-21T22:34:51.957Z,99706.69
2023-03-21T22:37:19.308Z,99700.06
2023-03-21T22:39:46.966Z,99701.03
2023-03-21T22:42:14.308Z,99697.84
2023-03-21T22:44:41.663Z,99703.84
2023-03-21T22:47:09.961Z,99707.44
2023-03-21T22:49:37.952Z,99702.50
2023-03-21T22:52:06.028Z,99711.44
2023-03-21T22:54:33.660Z,99709.94
2023-03-21T22:57:01.050Z,99723.75
2023-03-21T22:59:28.638Z,99712.69
2023-03-21T23:01:56.721Z,99719.81
2023-03-21T23:04:25.056Z,99715.38
2023-03-21T23:06:52.487Z,99716.22
2023-03-21T23:09:20.482Z,99710.50
2023-03-21T23:11:49.573Z,99716.09
2023-03-21T23:14:17.488Z,99709.66
2023-03-21T23:16:45.174Z,99708.94
2023-03-21T23:19:12.510Z,99696.63
2023-03-21T23:21:39.909Z,99707.00
2023-03-21T23:24:07.938Z,99705.91
2023-03-21T23:26:35.277Z,99702.25
2023-03-21T23:29:03.875Z,99706.44
2023-03-21T23:31:33.047Z,99713.16
2023-03-21T23:34:00.640Z,99715.75
2023-03-21T23:36:28.154Z,99708.38
2023-03-21T23:38:55.761Z,99709.66
2023-03-21T23:41:26.010Z,99712.22
2023-03-21T23:43:53.455Z,99719.84
2023-03-21T23:46:21.135Z,99719.78
2023-03-21T23:48:48.619Z,99723.91
2023-03-21T23:51:16.524Z,99723.81
2023-03-21T23:53:45.246Z,99728.88
2023-03-21T23:56:17.579Z,99727.47
2023-03-21T23:58:45.590Z,99731.53
